Time;durP1;ratioP1;P1;durP2;ratioP2;P2;SDS_P1;SDS_P2;PMS_P1;PMS_P2;Temp;Humidity;BMP_temperature;BMP_pressure;BME280_temperature;BME280_humidity;BME280_pressure;Samples;Min_cycle;Max_cycle;Signal;HPM_P1;HPM_P2
2023/01/07 00:01:17;;;;;;;8.40;6.20;;;;;;;10.96;80.58;101546.06;5032785;28;20021;-64
2023/01/07 00:03:43;;;;;;;6.88;6.07;;;;;;;10.97;80.23;101553.34;5029866;28;20067;-64
2023/01/07 00:06:17;;;;;;;8.45;6.40;;;;;;;11.00;80.51;101547.31;5026707;28;20026;-64
2023/01/07 00:08:45;;;;;;;7.45;6.60;;;;;;;10.97;80.29;101547.78;5030132;28;20038;-64
2023/01/07 00:11:15;;;;;;;9.00;6.93;;;;;;;10.95;80.32;101538.81;5031723;28;20025;-64
2023/01/07 00:13:41;;;;;;;8.10;6.50;;;;;;;10.88;80.43;101537.25;5031503;28;20045;-64
2023/01/07 00:16:12;;;;;;;8.13;6.60;;;;;;;10.89;80.41;101538.94;5030289;28;20037;-64
2023/01/07 00:18:38;;;;;;;10.13;7.38;;;;;;;10.92;80.58;101538.44;5028426;28;20025;-64
2023/01/07 00:21:07;;;;;;;8.48;6.88;;;;;;;10.96;80.21;101534.13;5030007;28;20612;-64
2023/01/07 00:23:34;;;;;;;11.88;7.35;;;;;;;10.94;80.49;101530.75;5026991;28;20038;-64
2023/01/07 00:26:04;;;;;;;9.68;7.63;;;;;;;10.97;80.30;101545.00;5028919;28;20029;-64
2023/01/07 00:28:29;;;;;;;10.15;7.55;;;;;;;10.99;79.98;101540.03;5030414;28;20103;-64
2023/01/07 00:31:07;;;;;;;9.55;7.50;;;;;;;10.97;80.41;101538.59;5027374;28;20377;-64
2023/01/07 00:33:34;;;;;;;11.95;8.13;;;;;;;10.91;80.42;101526.50;5022928;28;20041;-64
2023/01/07 00:36:07;;;;;;;12.40;8.10;;;;;;;10.93;80.46;101529.06;5026668;28;20033;-64
2023/01/07 00:38:33;;;;;;;11.40;8.02;;;;;;;10.91;80.30;101515.38;5029154;28;20041;-64
2023/01/07 00:40:59;;;;;;;9.30;8.02;;;;;;;10.93;80.22;101524.34;5028757;28;20056;-64
2023/01/07 00:43:24;;;;;;;11.38;7.93;;;;;;;10.90;80.13;101521.19;5029925;28;20385;-65
2023/01/07 00:45:50;;;;;;;11.95;8.48;;;;;;;10.86;80.37;101518.06;5029455;28;20496;-64
2023/01/07 00:48:17;;;;;;;10.85;8.23;;;;;;;10.85;80.29;101519.16;5029981;28;20030;-64
2023/01/07 00:50:42;;;;;;;11.48;8.40;;;;;;;10.85;80.29;101516.38;5029200;28;20056;-64
2023/01/07 00:53:09;;;;;;;10.25;8.00;;;;;;;10.87;80.24;101508.63;5028955;28;20375;-64
2023/01/07 00:55:34;;;;;;;12.43;8.63;;;;;;;10.88;80.35;101501.13;5031235;28;20116;-64
2023/01/07 00:58:00;;;;;;;9.50;7.80;;;;;;;10.85;80.74;101499.69;5023591;28;20108;-65
2023/01/07 01:00:25;;;;;;;9.27;7.38;;;;;;;10.87;80.71;101502.22;5029927;28;20041;-64
2023/01/07 01:02:51;;;;;;;10.38;7.18;;;;;;;10.87;80.54;101497.50;5029343;28;20538;-64
2023/01/07 01:05:17;;;;;;;11.05;7.50;;;;;;;10.86;80.60;101498.59;5019339;28;20057;-64
2023/01/07 01:07:43;;;;;;;9.77;7.05;;;;;;;10.86;80.35;101489.44;5027480;28;20523;-64
2023/01/07 01:10:12;;;;;;;8.80;6.43;;;;;;;10.84;80.27;101488.81;5030484;28;20382;-64
2023/01/07 01:12:38;;;;;;;9.70;6.90;;;;;;;10.82;80.44;101478.81;5029205;28;20129;-64
2023/01/07 01:15:07;;;;;;;8.70;6.97;;;;;;;10.75;80.41;101475.28;5026412;28;20041;-64
2023/01/07 01:17:33;;;;;;;8.88;6.40;;;;;;;10.79;80.54;101476.50;5025077;28;20037;-64
2023/01/07 01:19:58;;;;;;;10.52;6.55;;;;;;;10.74;80.51;101476.38;5025854;28;20358;-64
2023/01/07 01:22:24;;;;;;;7.10;6.20;;;;;;;10.80;80.38;101477.34;5028041;28;20452;-64
2023/01/07 01:24:50;;;;;;;6.93;6.15;;;;;;;10.78;80.59;101465.63;5030739;28;20034;-64
2023/01/07 01:27:16;;;;;;;8.32;6.78;;;;;;;10.77;80.50;101459.25;5029688;28;20032;-64
2023/01/07 01:29:41;;;;;;;9.60;6.72;;;;;;;10.79;80.42;101456.22;5025288;28;20022;-64
2023/01/07 01:32:07;;;;;;;8.52;6.38;;;;;;;10.77;80.15;101464.81;5031225;28;20026;-64
2023/01/07 01:34:32;;;;;;;8.05;5.90;;;;;;;10.78;80.47;101462.88;5028191;28;20033;-64
2023/01/07 01:36:57;;;;;;;9.13;6.63;;;;;;;10.76;80.32;101454.75;5028297;28;20029;-64
2023/01/07 01:39:23;;;;;;;7.60;6.50;;;;;;;10.73;80.32;101465.53;5031509;28;20044;-65
2023/01/07 01:41:48;;;;;;;7.00;5.97;;;;;;;10.61;80.46;101450.75;5024992;28;20026;-64
2023/01/07 01:44:36;;;;;;;7.57;5.88;;;;;;;10.66;80.58;101459.22;5026290;28;20033;-64
2023/01/07 01:47:04;;;;;;;7.53;5.97;;;;;;;10.64;80.69;101461.38;5034381;28;20041;-64
2023/01/07 01:49:35;;;;;;;10.13;6.45;;;;;;;10.61;80.44;101465.50;5032123;28;20065;-64
2023/01/07 01:52:13;;;;;;;8.18;5.45;;;;;;;10.63;80.62;101462.47;5031923;28;20084;-64
2023/01/07 01:54:42;;;;;;;9.05;5.82;;;;;;;10.62;80.45;101461.63;5033553;28;20040;-64
2023/01/07 01:57:08;;;;;;;8.10;6.13;;;;;;;10.59;80.43;101462.09;5029561;28;20079;-64
2023/01/07 01:59:38;;;;;;;7.38;5.50;;;;;;;10.63;80.90;101462.47;5033326;28;20041;-64
2023/01/07 02:02:05;;;;;;;8.05;5.50;;;;;;;10.62;80.74;101463.56;5030548;28;20392;-64
2023/01/07 02:04:31;;;;;;;7.32;5.57;;;;;;;10.62;80.62;101466.34;5027668;28;20026;-64
2023/01/07 02:07:11;;;;;;;9.77;5.90;;;;;;;10.66;80.72;101464.78;5031425;28;20042;-64
2023/01/07 02:09:36;;;;;;;8.07;5.57;;;;;;;10.65;80.55;101461.16;5030088;28;20129;-64
2023/01/07 02:12:16;;;;;;;7.40;5.53;;;;;;;10.68;80.40;101460.66;5033590;28;20120;-64
2023/01/07 02:14:41;;;;;;;8.18;5.70;;;;;;;10.68;80.05;101468.16;5029638;28;20109;-64
2023/01/07 02:17:21;;;;;;;10.73;5.82;;;;;;;10.69;80.20;101458.72;5033080;28;20038;-64
2023/01/07 02:20:14;;;;;;;6.78;5.28;;;;;;;10.70;80.45;101450.19;5026908;28;20460;-64
2023/01/07 02:22:45;;;;;;;9.75;6.18;;;;;;;10.70;80.00;101457.66;5029784;28;20033;-64
2023/01/07 02:25:41;;;;;;;8.80;5.55;;;;;;;10.69;80.09;101447.63;5025885;28;20041;-64
2023/01/07 02:28:28;;;;;;;9.48;5.55;;;;;;;10.69;80.22;101450.41;5033062;28;20033;-64
2023/01/07 02:31:31;;;;;;;8.05;5.45;;;;;;;10.67;80.04;101453.41;5019129;28;20112;-63
2023/01/07 02:34:16;;;;;;;6.63;5.22;;;;;;;10.61;80.17;101446.06;5032059;28;20423;-63
2023/01/07 02:36:41;;;;;;;8.73;5.68;;;;;;;10.61;80.12;101447.97;5014132;28;20030;-64
2023/01/07 02:39:16;;;;;;;8.35;5.13;;;;;;;10.60;80.32;101451.84;5013535;28;20037;-65
2023/01/07 02:41:50;;;;;;;6.47;5.15;;;;;;;10.54;80.16;101448.09;5014014;28;20092;-64
2023/01/07 02:44:29;;;;;;;9.25;5.10;;;;;;;10.55;80.29;101438.69;5028473;28;20786;-64
2023/01/07 02:47:10;;;;;;;7.18;4.95;;;;;;;10.59;80.35;101444.59;5026427;28;20037;-63
2023/01/07 02:49:36;;;;;;;6.68;5.13;;;;;;;10.59;80.32;101441.81;5031689;28;20488;-63
2023/01/07 02:52:16;;;;;;;6.97;4.82;;;;;;;10.58;80.27;101438.22;5029887;28;20080;-63
2023/01/07 02:54:43;;;;;;;7.22;4.60;;;;;;;10.57;80.50;101442.91;5027845;28;20060;-65
2023/01/07 02:57:26;;;;;;;8.00;4.80;;;;;;;10.55;80.51;101436.75;5029975;28;20025;-65
2023/01/07 03:00:09;;;;;;;8.15;5.13;;;;;;;10.56;80.52;101432.88;5024290;28;20031;-63
2023/01/07 03:03:02;;;;;;;7.30;5.00;;;;;;;10.61;80.49;101437.75;5029194;28;20095;-62
2023/01/07 03:05:49;;;;;;;8.50;4.15;;;;;;;10.57;80.69;101434.59;5027861;28;20037;-62
2023/01/07 03:08:33;;;;;;;7.80;4.50;;;;;;;10.55;80.41;101424.81;5025743;28;20103;-64
2023/01/07 03:11:04;;;;;;;8.05;4.25;;;;;;;10.54;80.79;101426.75;5031058;28;20040;-64
2023/01/07 03:13:35;;;;;;;7.75;4.05;;;;;;;10.57;80.46;101417.06;5030563;28;20037;-64
2023/01/07 03:16:22;;;;;;;7.13;4.80;;;;;;;10.59;80.41;101414.06;5029808;28;20048;-64
2023/01/07 03:19:05;;;;;;;7.22;4.57;;;;;;;10.64;80.67;101414.19;5025802;28;20029;-64
2023/01/07 03:21:34;;;;;;;6.68;4.05;;;;;;;10.57;80.42;101406.84;5030099;28;20037;-64
2023/01/07 03:24:01;;;;;;;8.10;4.05;;;;;;;10.62;80.40;101403.34;5031595;28;20469;-64
2023/01/07 03:26:32;;;;;;;7.95;4.13;;;;;;;10.62;80.47;101402.50;5032480;28;20033;-64
2023/01/07 03:29:01;;;;;;;6.13;4.45;;;;;;;10.59;80.24;101389.94;5031761;28;20047;-64
2023/01/07 03:31:28;;;;;;;6.78;4.20;;;;;;;10.59;80.28;101394.63;5029634;28;20061;-64
2023/01/07 03:34:05;;;;;;;4.35;3.75;;;;;;;10.60;80.61;101388.84;5031484;28;20079;-64
2023/01/07 03:36:39;;;;;;;5.47;4.05;;;;;;;10.59;80.49;101389.09;5030150;28;20068;-64
2023/01/07 03:39:07;;;;;;;8.50;3.97;;;;;;;10.61;80.50;101392.44;5015472;28;20465;-64
2023/01/07 03:44:17;;;;;;;5.20;4.22;;;;;;;10.65;80.48;101391.75;5032600;28;20044;-64
2023/01/07 03:46:42;;;;;;;5.47;4.00;;;;;;;10.63;80.29;101393.06;5031829;28;20037;-64
2023/01/07 03:49:08;;;;;;;7.60;4.80;;;;;;;10.61;80.47;101375.78;5031949;28;20099;-64
2023/01/07 03:51:33;;;;;;;4.90;3.42;;;;;;;10.61;80.14;101373.91;5030126;28;20045;-64
2023/01/07 03:53:58;;;;;;;6.57;4.13;;;;;;;10.62;80.21;101380.28;5030855;28;20036;-64
2023/01/07 03:56:24;;;;;;;4.72;3.45;;;;;;;10.58;80.24;101371.59;5028235;28;20524;-65
2023/01/07 03:58:49;;;;;;;4.90;3.60;;;;;;;10.59;80.38;101372.44;5032401;28;20112;-64
2023/01/07 04:01:14;;;;;;;7.60;3.40;;;;;;;10.61;80.34;101373.03;5031680;28;20030;-64
2023/01/07 04:03:39;;;;;;;8.30;3.65;;;;;;;10.61;80.14;101367.47;5030706;28;20044;-64
2023/01/07 04:06:05;;;;;;;6.38;3.55;;;;;;;10.61;79.99;101365.56;5031185;28;20039;-64
2023/01/07 04:08:30;;;;;;;5.03;3.53;;;;;;;10.57;80.30;101369.88;5030973;28;20026;-64
2023/01/07 04:10:55;;;;;;;8.07;3.83;;;;;;;10.54;80.12;101354.56;5030164;28;20068;-65
2023/01/07 04:13:21;;;;;;;6.28;3.50;;;;;;;10.54;80.21;101360.13;5021263;28;20472;-64
2023/01/07 04:15:46;;;;;;;4.55;3.30;;;;;;;10.57;80.21;101359.66;5026867;28;20032;-63
2023/01/07 04:18:11;;;;;;;7.05;3.47;;;;;;;10.55;80.12;101347.94;5030184;28;20041;-63
2023/01/07 04:20:36;;;;;;;8.40;3.67;;;;;;;10.57;79.95;101348.53;5029958;28;20085;-63
2023/01/07 04:23:02;;;;;;;4.03;3.42;;;;;;;10.55;80.05;101336.81;5031221;28;20057;-63
2023/01/07 04:25:27;;;;;;;6.35;3.40;;;;;;;10.57;79.88;101336.56;5030946;28;20111;-63
2023/01/07 04:27:52;;;;;;;4.25;3.13;;;;;;;10.57;79.92;101326.34;5029298;28;20049;-63
2023/01/07 04:30:18;;;;;;;4.35;2.88;;;;;;;10.57;79.70;101326.34;5027951;28;20036;-64
2023/01/07 04:32:43;;;;;;;3.75;3.20;;;;;;;10.59;79.48;101325.25;5029480;28;20477;-64
2023/01/07 04:35:08;;;;;;;3.88;2.95;;;;;;;10.57;79.68;101323.56;5030483;28;20500;-64
2023/01/07 04:37:33;;;;;;;6.55;3.50;;;;;;;10.58;79.63;101318.84;5030075;28;20439;-64
2023/01/07 04:39:59;;;;;;;4.75;3.40;;;;;;;10.59;79.21;101323.31;5024323;28;20381;-65
2023/01/07 04:42:24;;;;;;;3.83;3.17;;;;;;;10.57;79.28;101315.22;5028314;28;20029;-64
2023/01/07 04:44:49;;;;;;;4.55;3.20;;;;;;;10.56;79.31;101316.28;5028728;28;20033;-64
2023/01/07 04:47:15;;;;;;;4.13;2.75;;;;;;;10.53;79.19;101308.47;5015231;28;20051;-64
2023/01/07 04:49:40;;;;;;;4.80;3.10;;;;;;;10.55;79.06;101300.75;5022591;28;20026;-64
2023/01/07 04:52:05;;;;;;;5.25;3.00;;;;;;;10.52;78.94;101301.22;5030346;28;20120;-64
2023/01/07 04:54:31;;;;;;;5.15;2.90;;;;;;;10.54;79.17;101299.06;5031154;28;20120;-64
2023/01/07 04:56:56;;;;;;;5.28;2.83;;;;;;;10.55;79.09;101303.50;5030041;28;20030;-64
2023/01/07 04:59:21;;;;;;;6.20;3.17;;;;;;;10.55;78.79;101300.75;5029412;28;20524;-64
2023/01/07 05:01:47;;;;;;;5.15;2.92;;;;;;;10.56;78.83;101296.88;5028359;28;20541;-64
2023/01/07 05:04:12;;;;;;;4.05;2.60;;;;;;;10.56;78.43;101296.88;5020434;28;20034;-64
2023/01/07 05:06:37;;;;;;;5.53;2.67;;;;;;;10.55;78.58;101292.41;5010124;28;20038;-64
2023/01/07 05:09:03;;;;;;;4.45;2.97;;;;;;;10.55;78.46;101292.41;5012055;28;20033;-64
2023/01/07 05:11:28;;;;;;;3.20;2.80;;;;;;;10.53;78.32;101291.81;5027603;28;20432;-64
2023/01/07 05:13:53;;;;;;;4.68;2.67;;;;;;;10.52;78.55;101297.59;5028980;28;20659;-64
2023/01/07 05:16:19;;;;;;;3.05;2.75;;;;;;;10.55;78.53;101295.19;5030121;28;20057;-64
2023/01/07 05:18:44;;;;;;;3.42;2.85;;;;;;;10.54;78.28;101287.13;5026348;28;20037;-64
2023/01/07 05:21:10;;;;;;;3.47;2.80;;;;;;;10.55;78.19;101278.53;5032209;28;20055;-64
2023/01/07 05:23:35;;;;;;;5.88;2.88;;;;;;;10.54;77.98;101279.63;5031013;28;20022;-64
2023/01/07 05:26:01;;;;;;;4.53;2.50;;;;;;;10.51;78.04;101282.88;5029816;28;20025;-64
2023/01/07 05:28:26;;;;;;;3.80;2.70;;;;;;;10.50;77.94;101283.97;5028893;28;20412;-64
2023/01/07 05:30:51;;;;;;;4.15;2.80;;;;;;;10.49;77.87;101273.97;5028334;28;20029;-64
2023/01/07 05:33:17;;;;;;;4.53;2.70;;;;;;;10.51;77.83;101271.78;5030343;28;20464;-64
2023/01/07 05:35:42;;;;;;;4.35;2.78;;;;;;;10.51;77.51;101276.50;5029572;28;20040;-63
2023/01/07 05:38:07;;;;;;;6.47;3.10;;;;;;;10.48;77.35;101283.34;5027864;28;20029;-64
2023/01/07 05:40:33;;;;;;;3.72;2.60;;;;;;;10.47;77.51;101281.69;5029867;28;20039;-64
2023/01/07 05:42:58;;;;;;;3.47;2.30;;;;;;;10.42;77.41;101281.56;5029729;28;20465;-64
2023/01/07 05:45:23;;;;;;;2.75;2.10;;;;;;;10.47;77.25;101275.28;5028968;28;20120;-64
2023/01/07 05:47:49;;;;;;;3.13;2.60;;;;;;;10.46;77.29;101274.44;5029962;28;20607;-64
2023/01/07 05:50:14;;;;;;;4.22;2.50;;;;;;;10.48;77.37;101272.25;5029357;28;20033;-63
2023/01/07 05:52:39;;;;;;;4.45;2.50;;;;;;;10.46;77.02;101262.50;5029365;28;20125;-64
2023/01/07 05:55:05;;;;;;;4.40;2.50;;;;;;;10.47;77.11;101269.72;5025009;28;20033;-64
2023/01/07 05:57:31;;;;;;;4.60;2.20;;;;;;;10.46;76.78;101273.59;5027343;28;20030;-64
2023/01/07 05:59:56;;;;;;;3.45;2.20;;;;;;;10.44;77.19;101262.72;5029527;28;20087;-64
2023/01/07 06:02:22;;;;;;;3.75;2.30;;;;;;;10.44;76.85;101259.13;5028116;28;20124;-64
2023/01/07 06:04:47;;;;;;;3.85;2.67;;;;;;;10.43;76.66;101269.38;5029959;28;20111;-63
2023/01/07 06:07:12;;;;;;;3.20;2.17;;;;;;;10.40;76.58;101258.75;5029436;28;20049;-64
2023/01/07 06:09:38;;;;;;;2.78;2.28;;;;;;;10.39;76.38;101261.78;5028291;28;20061;-64
2023/01/07 06:12:03;;;;;;;2.72;2.20;;;;;;;10.39;76.39;101264.56;5025526;28;20040;-63
2023/01/07 06:14:28;;;;;;;5.50;2.10;;;;;;;10.38;76.27;101255.38;5027876;28;20021;-64
2023/01/07 06:16:57;;;;;;;5.32;1.90;;;;;;;10.32;75.91;101256.34;5027631;28;20029;-64
2023/01/07 06:19:22;;;;;;;3.60;2.20;;;;;;;10.35;76.23;101243.94;5032888;28;20389;-64
2023/01/07 06:21:48;;;;;;;2.75;1.90;;;;;;;10.39;76.02;101242.34;5032933;28;20041;-64
2023/01/07 06:24:14;;;;;;;4.32;1.95;;;;;;;10.38;75.16;101238.75;5033512;28;20079;-64
2023/01/07 06:26:39;;;;;;;4.07;2.03;;;;;;;10.40;75.40;101230.16;5033270;28;20025;-64
2023/01/07 06:29:04;;;;;;;4.63;1.90;;;;;;;10.40;75.13;101241.25;5032395;28;20052;-64
2023/01/07 06:31:29;;;;;;;2.55;1.90;;;;;;;10.39;75.25;101228.47;5028869;28;20510;-63
2023/01/07 06:33:55;;;;;;;2.22;1.80;;;;;;;10.39;75.15;101226.53;5032896;28;20075;-64
2023/01/07 06:36:20;;;;;;;4.22;1.90;;;;;;;10.40;74.87;101222.69;5032595;28;20044;-64
2023/01/07 06:38:45;;;;;;;2.20;2.00;;;;;;;10.43;74.54;101215.81;5032496;28;20033;-64
2023/01/07 06:41:11;;;;;;;3.20;2.10;;;;;;;10.44;74.57;101225.81;5026229;28;20412;-64
2023/01/07 06:43:36;;;;;;;2.10;1.83;;;;;;;10.43;74.36;101216.66;5027342;28;20129;-64
2023/01/07 06:46:01;;;;;;;1.88;1.75;;;;;;;10.45;74.29;101210.84;5031034;28;20029;-64
2023/01/07 06:48:26;;;;;;;5.25;1.90;;;;;;;10.44;74.24;101212.78;5031813;28;20381;-64
2023/01/07 06:50:52;;;;;;;3.53;1.63;;;;;;;10.39;73.72;101218.22;5032310;28;20084;-64
2023/01/07 06:53:17;;;;;;;2.95;1.60;;;;;;;10.41;74.56;101213.25;5033380;28;20038;-65
2023/01/07 06:55:49;;;;;;;4.50;1.85;;;;;;;10.39;74.21;101198.78;5032227;28;20041;-64
2023/01/07 06:58:15;;;;;;;3.22;1.90;;;;;;;10.40;74.16;101208.81;5032101;28;20043;-64
2023/01/07 07:00:40;;;;;;;2.28;2.05;;;;;;;10.44;74.29;101212.78;5032781;28;20021;-64
2023/01/07 07:03:05;;;;;;;2.92;1.98;;;;;;;10.47;73.99;101203.97;5029561;28;20031;-64
2023/01/07 07:05:31;;;;;;;1.75;1.40;;;;;;;10.48;73.80;101202.88;5027972;28;20038;-64
2023/01/07 07:07:56;;;;;;;4.47;1.63;;;;;;;10.46;73.40;101196.75;5032317;28;20039;-64
2023/01/07 07:10:22;;;;;;;2.20;2.00;;;;;;;10.45;73.60;101189.50;5032106;28;20108;-64
2023/01/07 07:12:47;;;;;;;3.05;1.77;;;;;;;10.45;73.65;101183.97;5031604;28;20113;-64
2023/01/07 07:15:12;;;;;;;2.05;1.60;;;;;;;10.46;73.22;101182.88;5031881;28;20038;-64
2023/01/07 07:17:38;;;;;;;2.38;1.48;;;;;;;10.45;73.15;101183.09;5029930;28;20075;-64
2023/01/07 07:20:04;;;;;;;3.55;1.67;;;;;;;10.47;72.98;101181.75;5028496;28;20124;-65
2023/01/07 07:22:29;;;;;;;2.00;1.30;;;;;;;10.45;72.91;101172.84;5025639;28;20436;-65
2023/01/07 07:24:54;;;;;;;2.63;1.60;;;;;;;10.47;73.11;101176.22;5025222;28;20033;-65
2023/01/07 07:27:19;;;;;;;1.67;1.45;;;;;;;10.48;72.93;101171.50;5030125;28;20017;-64
2023/01/07 07:29:45;;;;;;;2.45;1.63;;;;;;;10.45;72.84;101170.09;5027940;28;20178;-64
2023/01/07 07:32:10;;;;;;;1.95;1.63;;;;;;;10.43;72.50;101175.03;5027033;28;20022;-65
2023/01/07 07:34:35;;;;;;;3.42;1.65;;;;;;;10.41;72.50;101177.19;5027835;28;20037;-65
2023/01/07 07:37:01;;;;;;;3.03;1.60;;;;;;;10.38;72.54;101172.16;5028889;28;20563;-66
2023/01/07 07:39:26;;;;;;;4.05;1.85;;;;;;;10.41;72.70;101165.25;5030577;28;20021;-67
2023/01/07 07:41:54;;;;;;;2.20;1.60;;;;;;;10.38;72.60;101172.16;5028256;28;20060;-66
2023/01/07 07:44:20;;;;;;;4.22;2.00;;;;;;;10.38;72.66;101163.81;5020728;28;20044;-66
2023/01/07 07:46:45;;;;;;;3.15;1.65;;;;;;;10.40;72.47;101163.56;5021851;28;20473;-66
2023/01/07 07:49:13;;;;;;;3.22;1.85;;;;;;;10.39;72.66;101162.72;5030374;28;20072;-65
2023/01/07 07:51:38;;;;;;;2.08;1.75;;;;;;;10.38;72.40;101161.03;5030064;28;20045;-66
2023/01/07 07:54:04;;;;;;;2.20;1.42;;;;;;;10.36;72.75;101152.09;5031181;28;20083;-67
2023/01/07 07:56:30;;;;;;;4.28;1.65;;;;;;;10.36;72.47;101160.44;5029834;28;20034;-66
2023/01/07 07:58:55;;;;;;;2.70;1.83;;;;;;;10.34;72.40;101150.69;5021462;28;20428;-66
2023/01/07 08:01:21;;;;;;;2.53;1.83;;;;;;;10.36;71.80;101151.25;5018944;28;20018;-67
2023/01/07 08:03:46;;;;;;;3.42;1.35;;;;;;;10.33;71.92;101147.03;5031778;28;20033;-67
2023/01/07 08:06:12;;;;;;;5.78;1.85;;;;;;;10.28;72.01;101149.72;5028690;28;20035;-68
2023/01/07 08:08:37;;;;;;;2.08;1.92;;;;;;;10.31;72.10;101146.47;5029263;28;20025;-69
2023/01/07 08:11:03;;;;;;;2.35;1.80;;;;;;;10.35;72.28;101133.78;5030102;28;20127;-68
2023/01/07 08:13:29;;;;;;;4.10;1.90;;;;;;;10.36;72.06;101138.22;5030641;28;20033;-70
2023/01/07 08:15:55;;;;;;;1.75;1.55;;;;;;;10.39;72.08;101128.59;5027466;28;20099;-69
2023/01/07 08:18:20;;;;;;;2.63;1.65;;;;;;;10.36;71.71;101137.38;5029617;28;20469;-70
2023/01/07 08:20:47;;;;;;;2.83;1.67;;;;;;;10.38;71.62;101135.22;5029489;28;20411;-70
2023/01/07 08:23:12;;;;;;;2.72;1.50;;;;;;;10.34;71.86;101129.31;5028400;28;20037;-70
2023/01/07 08:25:37;;;;;;;1.95;1.70;;;;;;;10.37;71.85;101134.34;5015630;28;20120;-70
2023/01/07 08:28:03;;;;;;;4.43;1.73;;;;;;;10.41;71.69;101134.72;5028769;28;20145;-71
2023/01/07 08:30:29;;;;;;;2.25;1.50;;;;;;;10.42;71.52;101123.38;5028607;28;20072;-71
2023/01/07 08:32:55;;;;;;;2.25;1.40;;;;;;;10.41;71.16;101123.63;5028913;28;20415;-68
2023/01/07 08:35:21;;;;;;;2.03;1.50;;;;;;;10.38;70.92;101121.34;5030163;28;20473;-69
2023/01/07 08:38:00;;;;;;;1.40;1.30;;;;;;;10.40;71.30;101119.16;5030010;28;20033;-69
2023/01/07 08:40:25;;;;;;;3.53;1.65;;;;;;;10.43;70.97;101124.22;5029903;28;20014;-71
2023/01/07 08:42:50;;;;;;;3.50;1.60;;;;;;;10.45;70.68;101114.59;5030126;28;20030;-69
2023/01/07 08:45:16;;;;;;;2.88;1.52;;;;;;;10.44;70.77;101107.31;5027203;28;20124;-69
2023/01/07 08:47:45;;;;;;;2.63;1.90;;;;;;;10.46;71.14;101118.19;5025829;28;20029;-69
2023/01/07 08:50:11;;;;;;;4.38;1.65;;;;;;;10.50;70.62;101109.13;5020569;28;20029;-67
2023/01/07 08:52:36;;;;;;;1.98;1.55;;;;;;;10.50;69.97;101106.34;5032540;28;20465;-70
2023/01/07 08:55:01;;;;;;;1.83;1.50;;;;;;;10.50;69.93;101102.75;5030439;28;20029;-67
2023/01/07 08:57:27;;;;;;;1.77;1.50;;;;;;;10.51;70.96;101102.47;5030178;28;20042;-70
2023/01/07 08:59:55;;;;;;;2.10;1.30;;;;;;;10.54;70.36;101107.53;5023956;28;20056;-72
2023/01/07 09:02:20;;;;;;;2.78;1.80;;;;;;;10.53;70.68;101105.00;5029321;28;20033;-73
2023/01/07 09:04:48;;;;;;;1.50;1.38;;;;;;;10.57;70.28;101112.59;5021128;28;20038;-73
2023/01/07 09:07:14;;;;;;;2.88;1.40;;;;;;;10.56;69.84;101102.56;5012833;28;20481;-72
2023/01/07 09:09:41;;;;;;;2.50;1.70;;;;;;;10.57;69.94;101100.63;5018520;28;20108;-71
2023/01/07 09:12:07;;;;;;;1.70;1.60;;;;;;;10.57;69.58;101090.41;5028661;28;20021;-70
2023/01/07 09:14:33;;;;;;;1.73;1.40;;;;;;;10.59;69.35;101081.81;5025314;28;20043;-72
2023/01/07 09:17:01;;;;;;;2.13;1.35;;;;;;;10.56;69.08;101094.25;5024210;28;20037;-71
2023/01/07 09:19:26;;;;;;;2.30;1.50;;;;;;;10.56;69.23;101085.91;5027889;28;20037;-67
2023/01/07 09:21:52;;;;;;;1.88;1.52;;;;;;;10.57;69.69;101084.84;5030396;28;20052;-71
2023/01/07 09:24:17;;;;;;;1.90;1.30;;;;;;;10.61;69.63;101073.22;5030476;28;20034;-68
2023/01/07 09:26:43;;;;;;;1.40;1.30;;;;;;;10.61;68.94;101081.56;5027483;28;20443;-68
2023/01/07 09:29:08;;;;;;;4.40;1.67;;;;;;;10.56;68.40;101074.81;5030082;28;20139;-68
2023/01/07 09:31:35;;;;;;;2.20;1.42;;;;;;;10.56;68.45;101080.38;5031769;28;20037;-69
2023/01/07 09:34:03;;;;;;;1.83;1.45;;;;;;;10.57;68.75;101073.75;5025640;28;20030;-70
2023/01/07 09:36:29;;;;;;;1.40;1.30;;;;;;;10.57;68.30;101070.97;5029057;28;20544;-69
2023/01/07 09:38:54;;;;;;;1.35;1.23;;;;;;;10.60;68.55;101068.78;5028131;28;20033;-70
2023/01/07 09:41:40;;;;;;;1.40;1.30;;;;;;;10.62;68.11;101050.78;5021702;28;20044;-70
2023/01/07 09:44:33;;;;;;;1.25;1.10;;;;;;;10.66;68.80;101045.59;5016503;28;20101;-76
2023/01/07 09:47:00;;;;;;;;;;;;;;;10.74;69.93;101053.50;5025346;28;20041;-69
2023/01/07 09:49:31;;;;;;;2.65;1.30;;;;;;;10.66;67.61;101048.38;5025901;28;19953;-70
2023/01/07 09:52:04;;;;;;;2.08;1.50;;;;;;;10.65;67.56;101044.75;5028678;28;20052;-71
2023/01/07 09:54:33;;;;;;;1.65;1.40;;;;;;;10.68;67.79;101048.94;5027482;28;20030;-69
2023/01/07 09:56:59;;;;;;;1.48;1.20;;;;;;;10.72;67.56;101037.09;5026658;28;20048;-68
2023/01/07 09:59:24;;;;;;;4.07;1.40;;;;;;;10.81;68.16;101037.53;5030543;28;20021;-64
2023/01/07 10:02:03;;;;;;;1.58;1.45;;;;;;;10.93;67.34;101027.19;5029901;28;20396;-69
2023/01/07 10:05:06;;;;;;;4.03;1.40;;;;;;;11.07;67.25;101024.91;5020717;28;20026;-69
2023/01/07 10:07:41;;;;;;;2.47;1.67;;;;;;;11.22;66.55;101027.94;5010891;28;20164;-71
2023/01/07 10:10:15;;;;;;;6.47;2.00;;;;;;;11.34;66.12;101018.69;5010926;28;20562;-73
2023/01/07 10:13:05;;;;;;;1.73;1.30;;;;;;;11.43;66.15;101006.88;5011562;28;20041;-72
2023/01/07 10:15:39;;;;;;;2.50;1.40;;;;;;;11.47;65.12;101008.03;5008934;28;20103;-72
2023/01/07 10:18:25;;;;;;;1.17;1.10;;;;;;;11.59;66.38;100993.19;5010241;28;20026;-70
2023/01/07 10:20:56;;;;;;;1.92;1.30;;;;;;;11.64;65.04;100994.13;5025647;28;20037;-71
2023/01/07 10:23:27;;;;;;;2.88;1.40;;;;;;;11.66;64.39;100978.00;5027405;28;20471;-70
2023/01/07 10:25:55;;;;;;;2.75;1.60;;;;;;;11.72;64.48;100977.00;5029956;28;20057;-71
2023/01/07 10:28:31;;;;;;;1.90;1.50;;;;;;;11.77;64.07;100979.84;5030284;28;20025;-69
2023/01/07 10:30:59;;;;;;;3.70;1.63;;;;;;;11.84;63.34;100968.56;5028846;28;20029;-69
2023/01/07 10:33:28;;;;;;;2.47;1.40;;;;;;;11.92;63.40;100953.34;5029789;28;20358;-69
2023/01/07 10:36:15;;;;;;;1.60;1.38;;;;;;;11.98;64.20;100964.25;5019620;28;20144;-70
2023/01/07 10:38:45;;;;;;;2.60;1.40;;;;;;;11.97;63.08;100947.84;5022421;28;20037;-71
2023/01/07 10:41:21;;;;;;;1.85;1.20;;;;;;;11.99;62.27;100954.00;5030035;28;20017;-71
2023/01/07 10:44:09;;;;;;;2.00;1.25;;;;;;;11.97;62.76;100942.28;5028609;28;20029;-71
2023/01/07 10:46:48;;;;;;;1.40;1.08;;;;;;;12.03;63.13;100942.09;5030128;28;20033;-71
2023/01/07 10:49:56;;;;;;;2.42;1.30;;;;;;;12.05;62.86;100933.47;5030106;28;20033;-71
2023/01/07 10:52:47;;;;;;;1.85;0.98;;;;;;;12.12;62.84;100922.97;5000971;28;20076;-71
2023/01/07 10:55:18;;;;;;;1.55;1.20;;;;;;;12.15;61.03;100924.41;5028489;28;20076;-71
2023/01/07 10:57:46;;;;;;;3.97;1.30;;;;;;;12.19;61.42;100915.28;5028964;28;20041;-71
2023/01/07 11:00:14;;;;;;;2.30;1.10;;;;;;;12.18;60.56;100912.72;5029338;28;20021;-71
2023/01/07 11:02:47;;;;;;;3.08;1.10;;;;;;;12.17;60.42;100923.03;5029432;28;20040;-71
2023/01/07 11:05:12;;;;;;;;;;;;;;;12.21;63.47;100899.13;5027656;28;20337;-71
2023/01/07 11:07:45;;;;;;;2.00;1.20;;;;;;;12.11;60.04;100920.47;5029375;28;20364;-71
2023/01/07 11:10:20;;;;;;;1.23;1.13;;;;;;;12.04;60.40;100904.81;5028470;28;20484;-71
2023/01/07 11:12:50;;;;;;;2.38;1.52;;;;;;;11.99;60.55;100898.38;5029130;28;20030;-71
2023/01/07 11:15:39;;;;;;;1.63;1.30;;;;;;;11.97;61.50;100893.03;5029387;28;20037;-71
2023/01/07 11:18:18;;;;;;;2.33;1.33;;;;;;;11.91;60.77;100899.66;5008258;28;20548;-71
2023/01/07 11:20:49;;;;;;;1.40;1.30;;;;;;;11.84;60.23;100898.19;5009165;28;20069;-71
2023/01/07 11:23:25;;;;;;;1.30;1.20;;;;;;;11.82;60.71;100887.28;5017162;28;20033;-72
2023/01/07 11:25:54;;;;;;;2.03;1.33;;;;;;;11.79;60.30;100876.69;5026384;28;20117;-72
2023/01/07 11:28:26;;;;;;;1.35;1.10;;;;;;;11.78;60.72;100877.78;5020331;28;20064;-72
2023/01/07 11:30:58;;;;;;;1.30;1.20;;;;;;;11.76;59.93;100866.09;5024476;28;20046;-74
2023/01/07 11:33:49;;;;;;;1.58;1.38;;;;;;;11.74;60.54;100852.44;5017515;28;20503;-71
2023/01/07 11:36:14;;;;;;;2.33;1.20;;;;;;;11.77;61.05;100843.56;5027832;28;20477;-71